Time,TemperatureF,DewpointF,PressureIn,WindDirection,WindDirectionDegrees,WindSpeedMPH,WindSpeedGustMPH,Humidity,HourlyPrecipIn,Conditions,Clouds,dailyrainin,SoftwareType,DateUTC
2013-04-23 00:01:00,32.4,28.7,30.63,North,-999,1.6,-999.0,86,-99.99,,,-99.99,Acu-Link.com,2013-04-23 04:01:00,
2013-04-23 00:17:00,32.4,28.7,30.62,North,-999,1.6,-999.0,86,-99.99,,,-99.99,Acu-Link.com,2013-04-23 04:17:00,
2013-04-23 00:32:00,31.9,28.5,30.62,North,-999,1.6,-999.0,87,-99.99,,,-99.99,Acu-Link.com,2013-04-23 04:32:00,
2013-04-23 00:47:00,31.4,28.3,30.62,North,-999,1.6,-999.0,88,-99.99,,,-99.99,Acu-Link.com,2013-04-23 04:47:00,
2013-04-23 01:03:00,31.6,28.2,30.62,North,-999,1.6,-999.0,87,-99.99,,,-99.99,Acu-Link.com,2013-04-23 05:03:00,
2013-04-23 01:18:00,31.3,28.2,30.60,North,-999,1.6,-999.0,88,-99.99,,,-99.99,Acu-Link.com,2013-04-23 05:18:00,
2013-04-23 01:33:00,31.2,28.1,30.59,North,-999,1.6,-999.0,88,-99.99,,,-99.99,Acu-Link.com,2013-04-23 05:33:00,
2013-04-23 01:48:00,31.1,28.0,30.59,North,-999,1.6,-999.0,88,-99.99,,,-99.99,Acu-Link.com,2013-04-23 05:48:00,
2013-04-23 02:03:00,30.9,28.0,30.60,North,-999,1.6,-999.0,89,-99.99,,,-99.99,Acu-Link.com,2013-04-23 06:03:00,
2013-04-23 02:19:00,31.2,28.6,30.59,North,-999,4.8,-999.0,90,-99.99,,,-99.99,Acu-Link.com,2013-04-23 06:19:00,
2013-04-23 02:34:00,31.1,28.5,30.56,North,-999,0.0,-999.0,90,-99.99,,,-99.99,Acu-Link.com,2013-04-23 06:34:00,
2013-04-23 02:49:00,31.5,28.9,30.57,North,-999,0.0,-999.0,90,-99.99,,,-99.99,Acu-Link.com,2013-04-23 06:49:00,
2013-04-23 03:04:00,32.1,29.2,30.57,North,-999,0.0,-999.0,89,-99.99,,,-99.99,Acu-Link.com,2013-04-23 07:04:00,
2013-04-23 03:19:00,32.7,29.8,30.57,North,-999,1.6,-999.0,89,-99.99,,,-99.99,Acu-Link.com,2013-04-23 07:19:00,
2013-04-23 03:35:00,33.1,30.2,30.55,North,-999,3.2,-999.0,89,-99.99,,,-99.99,Acu-Link.com,2013-04-23 07:35:00,
2013-04-23 03:50:00,33.5,30.3,30.55,North,-999,1.6,-999.0,88,-99.99,,,-99.99,Acu-Link.com,2013-04-23 07:50:00,
2013-04-23 04:05:00,33.7,30.5,30.56,North,-999,1.6,-999.0,88,-99.99,,,-99.99,Acu-Link.com,2013-04-23 08:05:00,
2013-04-23 04:21:00,33.9,30.7,30.54,North,-999,3.2,-999.0,88,-99.99,,,-99.99,Acu-Link.com,2013-04-23 08:21:00,
2013-04-23 04:36:00,34.0,30.5,30.54,North,-999,1.6,-999.0,87,-99.99,,,-99.99,Acu-Link.com,2013-04-23 08:36:00,
2013-04-23 04:51:00,34.2,31.0,30.54,North,-999,1.6,-999.0,88,-99.99,,,-99.99,Acu-Link.com,2013-04-23 08:51:00,
2013-04-23 05:06:00,34.3,30.8,30.54,North,-999,1.6,-999.0,87,-99.99,,,-99.99,Acu-Link.com,2013-04-23 09:06:00,
2013-04-23 05:21:00,34.3,30.8,30.53,North,-999,3.2,-999.0,87,-99.99,,,-99.99,Acu-Link.com,2013-04-23 09:21:00,
2013-04-23 05:37:00,34.4,31.2,30.52,North,-999,3.2,-999.0,88,-99.99,,,-99.99,Acu-Link.com,2013-04-23 09:37:00,
2013-04-23 05:52:00,34.6,31.1,30.54,North,-999,0.0,-999.0,87,-99.99,,,-99.99,Acu-Link.com,2013-04-23 09:52:00,
2013-04-23 06:07:00,34.7,31.2,30.54,North,-999,1.6,-999.0,87,-99.99,,,-99.99,Acu-Link.com,2013-04-23 10:07:00,
2013-04-23 06:22:00,34.9,31.4,30.54,North,-999,3.2,-999.0,87,-99.99,,,-99.99,Acu-Link.com,2013-04-23 10:22:00,
2013-04-23 06:38:00,35.2,31.7,30.53,North,-999,1.6,-999.0,87,-99.99,,,-99.99,Acu-Link.com,2013-04-23 10:38:00,
2013-04-23 06:53:00,35.4,31.6,30.53,North,-999,0.0,-999.0,86,-99.99,,,-99.99,Acu-Link.com,2013-04-23 10:53:00,
2013-04-23 07:08:00,35.6,31.8,30.53,North,-999,3.2,-999.0,86,-99.99,,,-99.99,Acu-Link.com,2013-04-23 11:08:00,
2013-04-23 07:23:00,35.7,31.6,30.54,North,-999,3.2,-999.0,85,-99.99,,,-99.99,Acu-Link.com,2013-04-23 11:23:00,
2013-04-23 07:39:00,35.9,31.5,30.53,North,-999,1.6,-999.0,84,-99.99,,,-99.99,Acu-Link.com,2013-04-23 11:39:00,
2013-04-23 07:54:00,36.2,31.8,30.53,North,-999,3.2,-999.0,84,-99.99,,,-99.99,Acu-Link.com,2013-04-23 11:54:00,
2013-04-23 08:09:00,36.5,31.8,30.53,North,-999,3.2,-999.0,83,-99.99,,,-99.99,Acu-Link.com,2013-04-23 12:09:00,
2013-04-23 08:24:00,36.8,32.4,30.54,North,-999,1.6,-999.0,84,-99.99,,,-99.99,Acu-Link.com,2013-04-23 12:24:00,
2013-04-23 08:39:00,36.8,33.0,30.53,North,-999,3.2,-999.0,86,-99.99,,,-99.99,Acu-Link.com,2013-04-23 12:39:00,
2013-04-23 08:55:00,36.3,33.7,30.52,North,-999,3.2,-999.0,90,-99.99,,,-99.99,Acu-Link.com,2013-04-23 12:55:00,
2013-04-23 09:10:00,36.8,34.4,30.52,North,-999,3.2,-999.0,91,-99.99,,,-99.99,Acu-Link.com,2013-04-23 13:10:00,
2013-04-23 09:25:00,37.1,35.0,30.52,North,-999,1.6,-999.0,92,-99.99,,,-99.99,Acu-Link.com,2013-04-23 13:25:00,
2013-04-23 09:41:00,37.8,35.4,30.51,North,-999,1.6,-999.0,91,-99.99,,,-99.99,Acu-Link.com,2013-04-23 13:41:00,
2013-04-23 09:56:00,37.6,34.9,30.50,North,-999,4.8,-999.0,90,-99.99,,,-99.99,Acu-Link.com,2013-04-23 13:56:00,
2013-04-23 10:11:00,38.0,35.1,30.50,North,-999,1.6,-999.0,89,-99.99,,,-99.99,Acu-Link.com,2013-04-23 14:11:00,
2013-04-23 10:26:00,38.2,35.2,30.50,North,-999,4.8,-999.0,89,-99.99,,,-99.99,Acu-Link.com,2013-04-23 14:26:00,
2013-04-23 10:41:00,38.1,35.7,30.49,North,-999,1.6,-999.0,91,-99.99,,,-99.99,Acu-Link.com,2013-04-23 14:41:00,
2013-04-23 10:57:00,38.2,36.1,30.49,North,-999,3.2,-999.0,92,-99.99,,,-99.99,Acu-Link.com,2013-04-23 14:57:00,
2013-04-23 11:12:00,38.7,36.3,30.49,North,-999,4.8,-999.0,91,-99.99,,,-99.99,Acu-Link.com,2013-04-23 15:12:00,
2013-04-23 11:27:00,38.5,36.1,30.49,North,-999,4.8,-999.0,91,-99.99,,,-99.99,Acu-Link.com,2013-04-23 15:27:00,
2013-04-23 11:42:00,38.7,36.6,30.48,North,-999,3.2,-999.0,92,-99.99,,,-99.99,Acu-Link.com,2013-04-23 15:42:00,
2013-04-23 11:57:00,38.7,37.1,30.48,North,-999,4.8,-999.0,94,-99.99,,,-99.99,Acu-Link.com,2013-04-23 15:57:00,
2013-04-23 12:13:00,38.7,37.4,30.47,North,-999,3.2,-999.0,95,-99.99,,,-99.99,Acu-Link.com,2013-04-23 16:13:00,
2013-04-23 12:28:00,38.8,37.8,30.46,North,-999,0.0,-999.0,96,-99.99,,,-99.99,Acu-Link.com,2013-04-23 16:28:00,
2013-04-23 12:43:00,39.2,38.2,30.45,North,-999,3.2,-999.0,96,-99.99,,,-99.99,Acu-Link.com,2013-04-23 16:43:00,
2013-04-23 12:59:00,39.4,38.4,30.44,North,-999,4.8,-999.0,96,-99.99,,,-99.99,Acu-Link.com,2013-04-23 16:59:00,
2013-04-23 13:14:00,39.7,38.9,30.45,North,-999,3.2,-999.0,97,-99.99,,,-99.99,Acu-Link.com,2013-04-23 17:14:00,
2013-04-23 13:29:00,40.1,39.6,30.44,North,-999,4.8,-999.0,98,-99.99,,,-99.99,Acu-Link.com,2013-04-23 17:29:00,
2013-04-23 13:44:00,40.5,39.7,30.42,North,-999,4.8,-999.0,97,-99.99,,,-99.99,Acu-Link.com,2013-04-23 17:44:00,
2013-04-23 13:59:00,40.4,39.9,30.41,North,-999,4.8,-999.0,98,-99.99,,,-99.99,Acu-Link.com,2013-04-23 17:59:00,
2013-04-23 14:15:00,40.2,39.4,30.41,North,-999,3.2,-999.0,97,-99.99,,,-99.99,Acu-Link.com,2013-04-23 18:15:00,
2013-04-23 14:30:00,40.4,39.9,30.41,North,-999,3.2,-999.0,98,-99.99,,,-99.99,Acu-Link.com,2013-04-23 18:30:00,
2013-04-23 14:45:00,40.3,39.8,30.40,North,-999,3.2,-999.0,98,-99.99,,,-99.99,Acu-Link.com,2013-04-23 18:45:00,
2013-04-23 15:01:00,40.4,39.9,30.38,North,-999,1.6,-999.0,98,-99.99,,,-99.99,Acu-Link.com,2013-04-23 19:01:00,
2013-04-23 15:16:00,40.4,39.9,30.39,North,-999,4.8,-999.0,98,-99.99,,,-99.99,Acu-Link.com,2013-04-23 19:16:00,
2013-04-23 15:31:00,40.5,40.0,30.38,North,-999,1.6,-999.0,98,-99.99,,,-99.99,Acu-Link.com,2013-04-23 19:31:00,
2013-04-23 15:46:00,40.5,40.0,30.37,North,-999,6.4,-999.0,98,-99.99,,,-99.99,Acu-Link.com,2013-04-23 19:46:00,
2013-04-23 16:01:00,40.4,39.9,30.35,North,-999,3.2,-999.0,98,-99.99,,,-99.99,Acu-Link.com,2013-04-23 20:01:00,
2013-04-23 16:17:00,40.4,39.9,30.36,North,-999,4.8,-999.0,98,-99.99,,,-99.99,Acu-Link.com,2013-04-23 20:17:00,
2013-04-23 16:32:00,40.4,39.9,30.36,North,-999,3.2,-999.0,98,-99.99,,,-99.99,Acu-Link.com,2013-04-23 20:32:00,
2013-04-23 16:47:00,40.3,39.8,30.36,North,-999,3.2,-999.0,98,-99.99,,,-99.99,Acu-Link.com,2013-04-23 20:47:00,
2013-04-23 17:02:00,40.1,39.6,30.37,North,-999,1.6,-999.0,98,-99.99,,,-99.99,Acu-Link.com,2013-04-23 21:02:00,
2013-04-23 17:18:00,39.9,39.6,30.35,North,-999,1.6,-999.0,99,-99.99,,,-99.99,Acu-Link.com,2013-04-23 21:18:00,
2013-04-23 17:33:00,39.8,39.5,30.35,North,-999,3.2,-999.0,99,-99.99,,,-99.99,Acu-Link.com,2013-04-23 21:33:00,
2013-04-23 17:48:00,39.8,39.5,30.35,North,-999,4.8,-999.0,99,-99.99,,,-99.99,Acu-Link.com,2013-04-23 21:48:00,
2013-04-23 18:03:00,39.8,39.5,30.34,North,-999,6.4,-999.0,99,-99.99,,,-99.99,Acu-Link.com,2013-04-23 22:03:00,
2013-04-23 18:19:00,39.7,39.4,30.32,North,-999,3.2,-999.0,99,-99.99,,,-99.99,Acu-Link.com,2013-04-23 22:19:00,
2013-04-23 18:34:00,39.7,39.4,30.32,North,-999,4.8,-999.0,99,-99.99,,,-99.99,Acu-Link.com,2013-04-23 22:34:00,
2013-04-23 18:49:00,39.6,39.3,30.31,North,-999,3.2,-999.0,99,-99.99,,,-99.99,Acu-Link.com,2013-04-23 22:49:00,
2013-04-23 19:04:00,39.6,39.3,30.31,North,-999,4.8,-999.0,99,-99.99,,,-99.99,Acu-Link.com,2013-04-23 23:04:00,
2013-04-23 19:20:00,39.6,39.3,30.31,North,-999,3.2,-999.0,99,-99.99,,,-99.99,Acu-Link.com,2013-04-23 23:20:00,
2013-04-23 19:35:00,39.6,39.3,30.30,North,-999,8.0,-999.0,99,-99.99,,,-99.99,Acu-Link.com,2013-04-23 23:35:00,
2013-04-23 19:50:00,39.7,39.4,30.31,North,-999,3.2,-999.0,99,-99.99,,,-99.99,Acu-Link.com,2013-04-23 23:50:00,
2013-04-23 20:05:00,39.7,39.4,30.29,North,-999,3.2,-999.0,99,-99.99,,,-99.99,Acu-Link.com,2013-04-24 00:05:00,
2013-04-23 20:20:00,39.8,39.5,30.28,North,-999,1.6,-999.0,99,-99.99,,,-99.99,Acu-Link.com,2013-04-24 00:20:00,
2013-04-23 20:36:00,39.9,39.6,30.28,North,-999,4.8,-999.0,99,-99.99,,,-99.99,Acu-Link.com,2013-04-24 00:36:00,
2013-04-23 20:51:00,39.9,39.6,30.27,North,-999,3.2,-999.0,99,-99.99,,,-99.99,Acu-Link.com,2013-04-24 00:51:00,
2013-04-23 21:06:00,39.9,39.6,30.26,North,-999,4.8,-999.0,99,-99.99,,,-99.99,Acu-Link.com,2013-04-24 01:06:00,
2013-04-23 21:22:00,39.9,39.6,30.25,North,-999,3.2,-999.0,99,-99.99,,,-99.99,Acu-Link.com,2013-04-24 01:22:00,
2013-04-23 21:37:00,39.9,39.6,30.25,North,-999,4.8,-999.0,99,-99.99,,,-99.99,Acu-Link.com,2013-04-24 01:37:00,
2013-04-23 21:52:00,39.9,39.6,30.24,North,-999,8.0,-999.0,99,-99.99,,,-99.99,Acu-Link.com,2013-04-24 01:52:00,
2013-04-23 22:07:00,40.0,39.7,30.24,North,-999,3.2,-999.0,99,-99.99,,,-99.99,Acu-Link.com,2013-04-24 02:07:00,
2013-04-23 22:22:00,40.1,39.8,30.24,North,-999,1.6,-999.0,99,-99.99,,,-99.99,Acu-Link.com,2013-04-24 02:22:00,
2013-04-23 22:53:00,40.3,40.0,30.20,North,-999,3.2,-999.0,99,-99.99,,,-99.99,Acu-Link.com,2013-04-24 02:53:00,
2013-04-23 23:08:00,40.4,40.1,30.20,North,-999,4.8,-999.0,99,-99.99,,,-99.99,Acu-Link.com,2013-04-24 03:08:00,
2013-04-23 23:23:00,40.5,40.2,30.20,North,-999,4.8,-999.0,99,-99.99,,,-99.99,Acu-Link.com,2013-04-24 03:23:00,
2013-04-23 23:54:00,40.6,40.3,30.18,North,-999,3.2,-999.0,99,-99.99,,,-99.99,Acu-Link.com,2013-04-24 03:54:00,